createdAt,value
2022-12-31T00:00:19.988Z,12.80
2022-12-31T00:01:02.590Z,12.60
2022-12-31T00:01:44.500Z,13.40
2022-12-31T00:02:26.534Z,12.60
2022-12-31T00:03:10.268Z,12.60
2022-12-31T00:03:54.252Z,12.80
2022-12-31T00:04:36.163Z,12.80
2022-12-31T00:05:18.013Z,12.60
2022-12-31T00:06:00.346Z,12.80
2022-12-31T00:06:42.186Z,12.60
2022-12-31T00:07:26.004Z,12.60
2022-12-31T00:08:07.745Z,12.80
2022-12-31T00:08:51.332Z,12.90
2022-12-31T00:09:33.137Z,12.70
2022-12-31T00:10:15.194Z,12.80
2022-12-31T00:10:56.948Z,12.90
2022-12-31T00:11:42.011Z,12.90
2022-12-31T00:12:23.776Z,12.70
2022-12-31T00:13:07.866Z,12.80
2022-12-31T00:13:49.655Z,13.00
2022-12-31T00:14:31.621Z,12.90
2022-12-31T00:15:13.524Z,12.90
2022-12-31T00:15:55.391Z,12.80
2022-12-31T00:16:40.420Z,12.70
2022-12-31T00:17:22.224Z,12.80
2022-12-31T00:18:06.465Z,12.90
2022-12-31T00:18:50.479Z,12.60
2022-12-31T00:19:32.229Z,12.90
2022-12-31T00:20:16.016Z,12.90
2022-12-31T00:20:57.660Z,12.90
2022-12-31T00:21:42.232Z,13.20
2022-12-31T00:22:24.038Z,12.70
2022-12-31T00:23:06.106Z,13.00
2022-12-31T00:23:48.801Z,13.10
2022-12-31T00:24:31.174Z,12.90
2022-12-31T00:25:13.149Z,13.00
2022-12-31T00:25:56.959Z,12.90
2022-12-31T00:26:38.756Z,13.00
2022-12-31T00:27:22.321Z,13.00
2022-12-31T00:28:05.271Z,13.00
2022-12-31T00:28:48.071Z,13.00
2022-12-31T00:29:29.805Z,13.00
2022-12-31T00:30:12.216Z,13.30
2022-12-31T00:30:56.160Z,13.00
2022-12-31T00:31:41.152Z,13.50
2022-12-31T00:32:22.886Z,13.10
2022-12-31T00:33:04.625Z,13.10
2022-12-31T00:33:46.590Z,13.10
2022-12-31T00:34:28.333Z,12.80
2022-12-31T00:35:10.420Z,13.10
2022-12-31T00:35:52.173Z,13.10
2022-12-31T00:36:36.604Z,13.00
2022-12-31T00:37:18.431Z,12.90
2022-12-31T00:38:00.528Z,13.10
2022-12-31T00:38:45.481Z,13.00
2022-12-31T00:39:27.260Z,13.10
2022-12-31T00:40:09.893Z,13.10
2022-12-31T00:40:51.698Z,17.20
2022-12-31T00:41:33.557Z,13.00
2022-12-31T00:42:15.558Z,13.10
2022-12-31T00:42:57.272Z,13.10
2022-12-31T00:43:41.166Z,13.00
2022-12-31T00:44:23.104Z,13.20
2022-12-31T00:45:05.553Z,13.20
2022-12-31T00:45:47.330Z,13.20
2022-12-31T00:46:29.597Z,13.20
2022-12-31T00:47:11.390Z,13.20
2022-12-31T00:47:53.235Z,13.20
2022-12-31T00:48:36.040Z,13.30
2022-12-31T00:49:17.883Z,13.20
2022-12-31T00:49:59.626Z,13.20
2022-12-31T00:50:41.315Z,13.30
2022-12-31T00:51:27.657Z,13.20
2022-12-31T00:52:09.740Z,13.30
2022-12-31T00:52:51.475Z,13.30
2022-12-31T00:53:33.913Z,13.10
2022-12-31T00:54:16.156Z,13.20
2022-12-31T00:54:57.926Z,13.30
2022-12-31T00:55:39.659Z,13.40
2022-12-31T00:56:25.659Z,13.30
2022-12-31T00:57:07.493Z,13.30
2022-12-31T00:57:51.607Z,13.10
2022-12-31T00:58:34.574Z,13.30
2022-12-31T00:59:58.387Z,13.40
2022-12-31T01:00:40.639Z,13.40
2022-12-31T01:01:30.657Z,13.30
2022-12-31T01:02:12.725Z,13.40
2022-12-31T01:02:54.695Z,13.50
2022-12-31T01:03:36.805Z,13.50
2022-12-31T01:04:20.921Z,13.40
2022-12-31T01:05:02.817Z,13.40
2022-12-31T01:05:44.545Z,13.40
2022-12-31T01:06:26.889Z,13.40
2022-12-31T01:07:08.628Z,13.40
2022-12-31T01:07:50.643Z,13.40
2022-12-31T01:08:32.553Z,13.40
2022-12-31T01:09:16.336Z,13.40
2022-12-31T01:09:58.044Z,13.50
2022-12-31T01:10:58.185Z,13.50
2022-12-31T01:11:42.469Z,13.60
2022-12-31T01:12:25.735Z,13.90
2022-12-31T01:13:07.526Z,13.50
2022-12-31T01:13:59.222Z,13.50
2022-12-31T01:14:41.196Z,13.50
2022-12-31T01:15:22.928Z,13.50
2022-12-31T01:16:12.425Z,13.60
2022-12-31T01:16:56.712Z,13.60
2022-12-31T01:17:38.424Z,13.40
2022-12-31T01:18:20.154Z,13.50
2022-12-31T01:19:04.893Z,13.50
2022-12-31T01:19:46.730Z,13.50
2022-12-31T01:20:28.620Z,13.50
2022-12-31T01:21:11.586Z,13.60
2022-12-31T01:21:56.742Z,13.50
2022-12-31T01:22:38.494Z,13.40
2022-12-31T01:23:22.567Z,13.40
2022-12-31T01:24:04.888Z,13.60
2022-12-31T01:24:46.749Z,13.60
2022-12-31T01:25:28.500Z,13.60
2022-12-31T01:26:12.464Z,13.50
2022-12-31T01:26:57.784Z,13.60
2022-12-31T01:27:39.687Z,13.60
2022-12-31T01:28:21.478Z,13.60
2022-12-31T01:29:04.923Z,13.60
2022-12-31T01:29:47.044Z,13.70
2022-12-31T01:30:29.034Z,13.70
2022-12-31T01:31:14.249Z,14.00
2022-12-31T01:31:56.548Z,13.70
2022-12-31T01:32:38.483Z,13.50
2022-12-31T01:33:20.731Z,13.70
2022-12-31T01:34:02.940Z,13.60
2022-12-31T01:34:44.782Z,13.60
2022-12-31T01:35:26.516Z,13.60
2022-12-31T01:36:16.849Z,13.60
2022-12-31T01:37:01.125Z,13.50
2022-12-31T01:37:42.920Z,13.60
2022-12-31T01:38:27.277Z,13.50
2022-12-31T01:39:09.596Z,13.70
2022-12-31T01:39:51.468Z,13.70
2022-12-31T01:40:37.933Z,13.70
2022-12-31T01:41:25.786Z,13.70
2022-12-31T01:42:12.915Z,13.70
2022-12-31T01:42:56.194Z,13.90
2022-12-31T01:43:54.139Z,13.80
2022-12-31T01:44:36.230Z,13.80
2022-12-31T01:45:17.952Z,13.80
2022-12-31T01:45:59.776Z,13.80
2022-12-31T01:46:41.640Z,13.90
2022-12-31T01:47:34.859Z,13.80
2022-12-31T01:48:24.417Z,13.70
2022-12-31T01:49:31.455Z,18.00
2022-12-31T01:50:21.744Z,13.90
2022-12-31T01:51:04.724Z,13.80
2022-12-31T01:51:52.432Z,13.80
2022-12-31T01:52:46.542Z,13.80
2022-12-31T01:53:29.090Z,13.70
2022-12-31T01:54:15.672Z,13.90
2022-12-31T01:55:05.116Z,13.90
2022-12-31T01:56:07.005Z,13.90
2022-12-31T01:56:51.626Z,13.90
2022-12-31T01:57:33.873Z,13.90
2022-12-31T01:58:22.164Z,13.90
2022-12-31T01:59:07.907Z,13.90
2022-12-31T01:59:50.504Z,13.70
2022-12-31T02:00:33.111Z,13.90
2022-12-31T02:01:26.845Z,14.10
2022-12-31T02:02:11.127Z,13.90
2022-12-31T02:02:53.405Z,13.80
2022-12-31T02:03:36.245Z,13.90
2022-12-31T02:04:20.751Z,13.90
2022-12-31T02:05:11.797Z,13.80
2022-12-31T02:06:07.011Z,13.90
2022-12-31T02:06:56.706Z,14.00
2022-12-31T02:07:39.627Z,14.00
2022-12-31T02:08:21.791Z,14.00
2022-12-31T02:09:05.864Z,13.80
2022-12-31T02:09:47.697Z,13.80
2022-12-31T02:10:29.871Z,13.70
2022-12-31T02:11:21.012Z,13.90
2022-12-31T02:12:02.820Z,13.80
2022-12-31T02:12:45.004Z,13.70
2022-12-31T02:13:26.776Z,10.60
2022-12-31T02:14:18.952Z,13.70
2022-12-31T02:15:00.940Z,14.00
2022-12-31T02:16:11.631Z,13.90
2022-12-31T02:17:14.704Z,13.80
2022-12-31T02:18:13.947Z,13.90
2022-12-31T02:19:21.878Z,13.90
2022-12-31T02:20:27.333Z,13.90
2022-12-31T02:21:20.196Z,13.90
2022-12-31T02:22:23.431Z,13.90
2022-12-31T02:23:27.036Z,13.80
2022-12-31T02:24:41.958Z,13.90
2022-12-31T02:25:29.129Z,13.90
2022-12-31T02:26:22.625Z,14.00
2022-12-31T02:27:27.081Z,13.90
2022-12-31T02:28:15.051Z,13.90
2022-12-31T02:29:14.141Z,14.00
2022-12-31T02:30:15.035Z,13.90
2022-12-31T02:31:07.261Z,14.10
2022-12-31T02:32:07.638Z,14.10
2022-12-31T02:32:53.096Z,14.00
2022-12-31T02:34:10.679Z,14.10
2022-12-31T02:35:20.929Z,14.10
2022-12-31T02:36:12.842Z,14.10
2022-12-31T02:36:57.109Z,14.10
2022-12-31T02:37:42.097Z,14.20
2022-12-31T02:38:31.371Z,14.20
2022-12-31T02:39:14.539Z,14.60
2022-12-31T02:39:58.087Z,14.20
2022-12-31T02:40:40.425Z,14.70
2022-12-31T02:41:40.880Z,15.60
2022-12-31T02:42:22.592Z,14.40
2022-12-31T02:43:05.024Z,14.40
2022-12-31T02:43:47.444Z,14.40
2022-12-31T02:44:30.960Z,14.40
2022-12-31T02:45:17.415Z,14.50
2022-12-31T02:46:11.919Z,14.40
2022-12-31T02:47:08.192Z,14.40
2022-12-31T02:47:55.946Z,14.50
2022-12-31T02:48:46.508Z,14.30
2022-12-31T02:49:43.164Z,14.60
2022-12-31T02:50:31.404Z,14.50
2022-12-31T02:51:22.202Z,14.50
2022-12-31T02:52:11.238Z,14.50
2022-12-31T02:53:14.997Z,14.50
2022-12-31T02:54:15.344Z,14.60
2022-12-31T02:55:03.024Z,14.60
2022-12-31T02:56:19.046Z,14.60
2022-12-31T02:57:11.902Z,14.40
2022-12-31T02:58:12.313Z,14.60
2022-12-31T02:59:41.937Z,14.60
2022-12-31T03:00:42.888Z,14.60
2022-12-31T03:01:48.322Z,14.60
2022-12-31T03:02:35.795Z,14.60
2022-12-31T03:03:19.329Z,14.60
2022-12-31T03:04:24.096Z,14.60
2022-12-31T03:05:07.320Z,14.70
2022-12-31T03:05:50.551Z,14.70
2022-12-31T03:06:32.461Z,14.70
2022-12-31T03:07:21.094Z,14.70
2022-12-31T03:08:02.853Z,14.70
2022-12-31T03:09:04.806Z,14.70
2022-12-31T03:09:46.679Z,14.50
2022-12-31T03:10:28.480Z,14.70
2022-12-31T03:11:30.644Z,14.70
2022-12-31T03:12:32.176Z,14.70
2022-12-31T03:13:16.492Z,14.70
2022-12-31T03:14:42.889Z,14.80
2022-12-31T03:15:31.419Z,14.70
2022-12-31T03:16:13.381Z,14.90
2022-12-31T03:16:55.579Z,14.70
2022-12-31T03:17:37.326Z,14.70
2022-12-31T03:18:39.573Z,14.70
2022-12-31T03:19:40.205Z,14.70
2022-12-31T03:21:02.028Z,14.70
2022-12-31T03:22:02.355Z,14.70
2022-12-31T03:22:44.233Z,14.70
2022-12-31T03:23:35.982Z,14.70
2022-12-31T03:24:36.235Z,14.70
2022-12-31T03:25:37.793Z,14.70
2022-12-31T03:26:19.573Z,14.70
2022-12-31T03:27:01.403Z,14.70
2022-12-31T03:27:44.433Z,14.90
2022-12-31T03:28:28.673Z,14.70
2022-12-31T03:29:10.879Z,14.70
2022-12-31T03:29:52.601Z,14.80
2022-12-31T03:30:36.351Z,14.80
2022-12-31T03:31:18.132Z,14.70
2022-12-31T03:32:00.276Z,14.80
2022-12-31T03:32:42.779Z,14.90
2022-12-31T03:33:25.904Z,14.70
2022-12-31T03:34:07.649Z,14.80
2022-12-31T03:34:49.541Z,14.70
2022-12-31T03:35:33.479Z,14.90
2022-12-31T03:36:15.893Z,14.80
2022-12-31T03:36:57.611Z,14.60
2022-12-31T03:37:40.287Z,14.70
2022-12-31T03:38:22.112Z,14.80
2022-12-31T03:39:06.053Z,15.00
2022-12-31T03:39:47.803Z,14.80
2022-12-31T03:40:31.121Z,14.70
2022-12-31T03:41:12.913Z,14.80
2022-12-31T03:41:54.681Z,14.70
2022-12-31T03:42:36.561Z,14.60
2022-12-31T03:43:19.553Z,14.70
2022-12-31T03:44:01.444Z,14.80
2022-12-31T03:44:43.161Z,14.80
2022-12-31T03:45:25.357Z,14.80
2022-12-31T03:46:07.087Z,14.90
2022-12-31T03:46:51.456Z,14.80
2022-12-31T03:47:33.197Z,14.70
2022-12-31T03:48:15.317Z,14.80
2022-12-31T03:48:57.097Z,14.80
2022-12-31T03:49:38.846Z,14.80
2022-12-31T03:50:21.189Z,14.70
2022-12-31T03:51:02.913Z,14.80
2022-12-31T03:51:44.605Z,14.80
2022-12-31T03:52:26.407Z,14.60
2022-12-31T03:53:08.300Z,14.70
2022-12-31T03:53:50.392Z,14.70
2022-12-31T03:54:32.907Z,14.70
2022-12-31T03:55:15.300Z,14.70
2022-12-31T03:55:57.069Z,10.80
2022-12-31T03:56:41.454Z,14.80
2022-12-31T03:57:26.754Z,14.70
2022-12-31T03:58:08.653Z,14.40
2022-12-31T03:58:50.446Z,14.80
2022-12-31T03:59:32.276Z,14.70
2022-12-31T04:00:17.875Z,14.70
2022-12-31T04:00:59.697Z,14.70
2022-12-31T04:01:41.670Z,14.70
2022-12-31T04:02:28.503Z,15.10
2022-12-31T04:03:11.232Z,14.70
2022-12-31T04:03:53.136Z,14.70
2022-12-31T04:04:36.999Z,14.70
2022-12-31T04:05:22.216Z,14.80
2022-12-31T04:06:06.312Z,14.80
2022-12-31T04:06:48.274Z,14.80
2022-12-31T04:07:30.486Z,14.80
2022-12-31T04:08:12.544Z,14.80
2022-12-31T04:08:54.374Z,14.80
2022-12-31T04:09:36.091Z,14.80
2022-12-31T04:10:21.541Z,14.70
2022-12-31T04:11:04.475Z,14.80
2022-12-31T04:11:46.308Z,14.80
2022-12-31T04:12:28.143Z,14.80
2022-12-31T04:13:12.235Z,14.80
2022-12-31T04:13:56.344Z,14.80
2022-12-31T04:14:38.134Z,14.80
2022-12-31T04:15:21.587Z,14.80
2022-12-31T04:16:03.607Z,14.80
2022-12-31T04:16:45.905Z,14.80
2022-12-31T04:17:28.306Z,14.80
2022-12-31T04:18:10.583Z,14.80
2022-12-31T04:18:52.484Z,14.80
2022-12-31T04:19:36.635Z,14.80
2022-12-31T04:20:18.622Z,14.90
2022-12-31T04:21:03.710Z,14.90
2022-12-31T04:21:46.000Z,14.80
2022-12-31T04:22:27.734Z,15.00
2022-12-31T04:23:09.465Z,14.80
2022-12-31T04:23:51.291Z,14.90
2022-12-31T04:24:33.236Z,14.90
2022-12-31T04:25:15.499Z,14.90
2022-12-31T04:25:57.489Z,14.90
2022-12-31T04:26:39.725Z,15.00
2022-12-31T04:27:21.476Z,14.40
2022-12-31T04:28:03.281Z,14.90
2022-12-31T04:28:45.017Z,14.60
2022-12-31T04:29:26.733Z,14.80
2022-12-31T04:30:11.741Z,14.90
2022-12-31T04:30:53.611Z,14.90
2022-12-31T04:31:35.593Z,15.00
2022-12-31T04:32:17.317Z,14.90
2022-12-31T04:33:01.379Z,14.90
2022-12-31T04:33:43.139Z,14.90
2022-12-31T04:34:24.870Z,15.00
2022-12-31T04:35:07.410Z,14.80
2022-12-31T04:35:51.191Z,15.00
2022-12-31T04:36:33.039Z,15.00
2022-12-31T04:37:14.937Z,15.00
2022-12-31T04:37:56.648Z,14.90
2022-12-31T04:38:38.402Z,14.90
2022-12-31T04:39:20.566Z,14.90
2022-12-31T04:40:06.262Z,15.00
2022-12-31T04:41:07.464Z,15.00
2022-12-31T04:41:51.496Z,14.70
2022-12-31T04:42:33.500Z,15.00
2022-12-31T04:43:15.562Z,15.10
2022-12-31T04:43:58.747Z,15.10
2022-12-31T04:44:40.929Z,15.20
2022-12-31T04:45:22.773Z,15.20
2022-12-31T04:46:04.711Z,15.00
2022-12-31T04:46:46.747Z,15.20
2022-12-31T04:47:28.678Z,15.20
2022-12-31T04:48:10.555Z,15.20
2022-12-31T04:48:52.524Z,15.20
2022-12-31T04:49:36.530Z,15.10
2022-12-31T04:50:18.324Z,15.10
2022-12-31T04:51:02.189Z,15.30
2022-12-31T04:51:43.955Z,15.30
2022-12-31T04:52:26.017Z,15.20
2022-12-31T04:53:07.748Z,15.20
2022-12-31T04:53:50.737Z,15.20
2022-12-31T04:54:32.479Z,15.20
2022-12-31T04:55:16.729Z,15.20
2022-12-31T04:55:58.498Z,15.20
2022-12-31T04:56:40.729Z,15.20
2022-12-31T04:57:22.470Z,15.20
2022-12-31T04:58:04.854Z,15.20
2022-12-31T04:58:46.844Z,15.20
2022-12-31T04:59:28.704Z,15.30
2022-12-31T05:00:11.314Z,15.20
2022-12-31T05:00:55.316Z,15.20
2022-12-31T05:01:38.552Z,15.30
2022-12-31T05:02:20.709Z,15.40
2022-12-31T05:03:02.581Z,15.20
2022-12-31T05:03:46.791Z,15.40
2022-12-31T05:04:28.703Z,11.40
2022-12-31T05:05:10.704Z,15.40
2022-12-31T05:05:53.762Z,15.50
2022-12-31T05:06:35.649Z,15.40
2022-12-31T05:07:17.425Z,15.50
2022-12-31T05:08:01.320Z,15.40
2022-12-31T05:08:43.727Z,15.50
2022-12-31T05:09:27.510Z,15.40
2022-12-31T05:10:09.644Z,15.60
2022-12-31T05:10:51.463Z,15.50
2022-12-31T05:11:33.273Z,15.50
2022-12-31T05:12:15.039Z,15.50
2022-12-31T05:12:56.975Z,15.50
2022-12-31T05:13:39.258Z,15.50
2022-12-31T05:14:21.501Z,15.40
2022-12-31T05:15:03.436Z,15.50
2022-12-31T05:15:46.674Z,15.50
2022-12-31T05:16:28.492Z,15.50
2022-12-31T05:17:10.734Z,15.40
2022-12-31T05:17:52.562Z,15.50
2022-12-31T05:18:34.930Z,15.60
2022-12-31T05:19:17.027Z,15.60
2022-12-31T05:19:58.924Z,15.60
2022-12-31T05:20:41.082Z,15.70
2022-12-31T05:21:23.024Z,15.70
2022-12-31T05:22:36.825Z,15.60
2022-12-31T05:23:18.634Z,15.60
2022-12-31T05:24:00.792Z,15.60
2022-12-31T05:24:42.582Z,15.60
2022-12-31T05:25:27.065Z,15.70
2022-12-31T05:26:08.968Z,15.60
2022-12-31T05:26:51.099Z,15.60
2022-12-31T05:27:32.957Z,15.70
2022-12-31T05:28:15.891Z,15.70
2022-12-31T05:29:02.403Z,15.70
2022-12-31T05:29:44.191Z,15.60
2022-12-31T05:30:26.500Z,15.70
2022-12-31T05:31:08.539Z,15.60
2022-12-31T05:31:52.430Z,15.70
2022-12-31T05:32:36.973Z,15.60
2022-12-31T05:33:19.214Z,15.70
2022-12-31T05:34:04.125Z,15.60
2022-12-31T05:34:46.197Z,15.80
2022-12-31T05:35:28.025Z,15.80
2022-12-31T05:36:09.899Z,15.80
2022-12-31T05:36:51.691Z,15.90
2022-12-31T05:37:33.664Z,15.90
2022-12-31T05:38:15.704Z,15.90
2022-12-31T05:38:57.537Z,15.90
2022-12-31T05:39:41.682Z,15.80
2022-12-31T05:40:23.472Z,15.80
2022-12-31T05:41:07.687Z,15.80
2022-12-31T05:42:31.761Z,15.90
2022-12-31T05:43:13.564Z,15.80
2022-12-31T05:43:55.263Z,15.80
2022-12-31T05:44:37.069Z,15.80
2022-12-31T05:45:28.397Z,15.80
2022-12-31T05:46:12.526Z,15.90
2022-12-31T05:46:54.284Z,15.90
2022-12-31T05:47:36.283Z,15.70
2022-12-31T05:48:18.025Z,15.80
2022-12-31T05:48:59.765Z,15.90
2022-12-31T05:49:41.649Z,15.90
2022-12-31T05:50:23.526Z,15.80
2022-12-31T05:51:05.844Z,15.80
2022-12-31T05:51:47.608Z,15.70
2022-12-31T05:52:31.754Z,15.90
2022-12-31T05:53:13.496Z,15.80
2022-12-31T05:53:55.276Z,15.90
2022-12-31T05:54:37.110Z,15.80
2022-12-31T05:55:18.972Z,15.90
2022-12-31T05:56:00.878Z,15.90
2022-12-31T05:56:42.689Z,15.90
2022-12-31T05:57:26.952Z,15.90
2022-12-31T05:58:08.701Z,16.00
2022-12-31T05:58:50.592Z,16.00
2022-12-31T05:59:32.990Z,16.00
2022-12-31T06:00:15.299Z,15.90
2022-12-31T06:00:57.138Z,16.00
2022-12-31T06:01:39.054Z,16.00
2022-12-31T06:02:21.659Z,15.90
2022-12-31T06:03:03.646Z,16.10
2022-12-31T06:03:46.674Z,16.00
2022-12-31T06:04:28.458Z,16.00
2022-12-31T06:05:10.960Z,16.00
2022-12-31T06:05:52.727Z,15.90
2022-12-31T06:06:37.007Z,16.00
2022-12-31T06:07:18.918Z,16.00
2022-12-31T06:08:01.029Z,16.00
2022-12-31T06:08:42.920Z,16.00
2022-12-31T06:09:27.217Z,16.00
2022-12-31T06:10:09.340Z,15.90
2022-12-31T06:10:51.562Z,15.90
2022-12-31T06:11:33.322Z,15.90
2022-12-31T06:12:15.184Z,15.90
2022-12-31T06:12:57.089Z,15.90
2022-12-31T06:13:39.274Z,15.90
2022-12-31T06:14:23.799Z,15.80
2022-12-31T06:15:06.871Z,15.80
2022-12-31T06:15:48.690Z,15.80
2022-12-31T06:16:30.935Z,15.80
2022-12-31T06:17:12.719Z,15.80
2022-12-31T06:17:57.095Z,15.80
2022-12-31T06:18:38.884Z,15.80
2022-12-31T06:20:07.307Z,15.70
2022-12-31T06:20:52.552Z,15.80
2022-12-31T06:21:34.495Z,15.90
2022-12-31T06:22:16.664Z,15.80
2022-12-31T06:22:58.554Z,15.80
2022-12-31T06:23:41.096Z,15.80
2022-12-31T06:24:22.861Z,15.80
2022-12-31T06:25:05.059Z,15.90
2022-12-31T06:25:46.815Z,15.70
2022-12-31T06:26:28.739Z,15.90
2022-12-31T06:27:10.678Z,15.90
2022-12-31T06:27:52.493Z,15.90
2022-12-31T06:28:34.426Z,15.90
2022-12-31T06:29:16.662Z,15.90
2022-12-31T06:29:58.554Z,15.90
2022-12-31T06:30:40.360Z,15.80
2022-12-31T06:31:22.379Z,15.60
2022-12-31T06:32:07.147Z,16.00
2022-12-31T06:32:48.975Z,15.90
2022-12-31T06:33:31.177Z,15.90
2022-12-31T06:34:12.953Z,15.90
2022-12-31T06:34:57.005Z,15.90
2022-12-31T06:35:38.794Z,15.90
2022-12-31T06:36:21.866Z,15.90
2022-12-31T06:37:03.666Z,15.90
2022-12-31T06:37:46.045Z,15.90
2022-12-31T06:38:29.478Z,16.00
2022-12-31T06:39:11.517Z,15.90
2022-12-31T06:39:53.347Z,15.80
2022-12-31T06:40:37.801Z,15.80
2022-12-31T06:41:22.332Z,15.90
2022-12-31T06:42:04.410Z,16.00
2022-12-31T06:42:46.512Z,15.90
2022-12-31T06:43:28.325Z,16.00
2022-12-31T06:44:10.153Z,16.00
2022-12-31T06:44:51.914Z,15.90
2022-12-31T06:45:33.672Z,15.90
2022-12-31T06:46:17.718Z,15.90
2022-12-31T06:46:59.588Z,15.90
2022-12-31T06:47:41.746Z,15.90
2022-12-31T06:48:23.514Z,15.90
2022-12-31T06:49:05.280Z,15.90
2022-12-31T06:49:47.095Z,15.90
2022-12-31T06:50:28.913Z,15.80
2022-12-31T06:51:19.369Z,15.80
2022-12-31T06:52:01.613Z,15.90
2022-12-31T06:52:43.330Z,15.90
2022-12-31T06:53:27.202Z,15.90
2022-12-31T06:54:09.035Z,15.90
2022-12-31T06:54:51.227Z,16.00
2022-12-31T06:55:33.528Z,12.40
2022-12-31T06:56:25.259Z,16.00
2022-12-31T06:57:12.158Z,15.90
2022-12-31T06:57:57.020Z,16.00
2022-12-31T06:58:39.327Z,16.00
2022-12-31T06:59:27.474Z,16.00
2022-12-31T07:00:11.200Z,16.00
2022-12-31T07:01:18.589Z,16.10
2022-12-31T07:02:21.076Z,16.00
2022-12-31T07:03:43.859Z,16.00
2022-12-31T07:04:36.207Z,16.00
2022-12-31T07:05:38.946Z,16.10
2022-12-31T07:06:41.274Z,16.10
2022-12-31T07:07:49.559Z,16.10
2022-12-31T07:08:54.133Z,16.10
2022-12-31T07:10:01.710Z,16.10
2022-12-31T07:10:57.353Z,16.30
2022-12-31T07:11:56.515Z,16.30
2022-12-31T07:12:53.735Z,16.20
2022-12-31T07:13:58.878Z,16.30
2022-12-31T07:14:57.997Z,16.30
2022-12-31T07:16:02.384Z,16.30
2022-12-31T07:16:52.984Z,16.20
2022-12-31T07:17:53.481Z,16.00
2022-12-31T07:18:42.516Z,16.20
2022-12-31T07:19:27.329Z,16.20
2022-12-31T07:20:10.681Z,16.20
2022-12-31T07:20:52.626Z,16.20
2022-12-31T07:21:37.560Z,16.20
2022-12-31T07:22:20.617Z,16.20
2022-12-31T07:23:02.755Z,16.20
2022-12-31T07:23:47.273Z,16.10
2022-12-31T07:24:29.364Z,16.10
2022-12-31T07:25:16.551Z,16.10
2022-12-31T07:26:09.683Z,16.00
2022-12-31T07:27:02.277Z,16.10
2022-12-31T07:27:58.374Z,16.10
2022-12-31T07:28:54.704Z,16.30
2022-12-31T07:29:52.654Z,16.10
2022-12-31T07:30:37.204Z,16.20
2022-12-31T07:31:51.282Z,16.20
2022-12-31T07:33:17.644Z,16.20
2022-12-31T07:34:05.258Z,16.20
2022-12-31T07:35:16.344Z,16.20
2022-12-31T07:36:12.835Z,16.10
2022-12-31T07:37:13.014Z,16.20
2022-12-31T07:38:12.065Z,16.20
2022-12-31T07:39:01.514Z,16.10
2022-12-31T07:40:14.205Z,16.10
2022-12-31T07:41:21.382Z,16.10
2022-12-31T07:42:15.551Z,16.20
2022-12-31T07:43:12.018Z,16.10
2022-12-31T07:44:10.872Z,16.00
2022-12-31T07:45:02.315Z,16.20
2022-12-31T07:45:59.406Z,16.20
2022-12-31T07:46:49.520Z,12.40
2022-12-31T07:47:32.113Z,16.20
2022-12-31T07:48:25.798Z,16.10
2022-12-31T07:49:12.794Z,16.20
2022-12-31T07:49:55.673Z,16.20
2022-12-31T07:50:37.745Z,16.20
2022-12-31T07:51:19.967Z,16.10
2022-12-31T07:52:02.453Z,16.10
2022-12-31T07:52:45.702Z,16.10
2022-12-31T07:53:28.154Z,16.20
2022-12-31T07:54:14.395Z,16.20
2022-12-31T07:54:56.897Z,16.10
2022-12-31T07:55:38.694Z,16.10
2022-12-31T07:56:20.496Z,16.20
2022-12-31T07:57:02.346Z,16.20
2022-12-31T07:58:06.206Z,16.20
2022-12-31T07:58:53.781Z,16.20
2022-12-31T07:59:52.694Z,16.00
2022-12-31T08:00:34.625Z,16.10
2022-12-31T08:01:27.819Z,16.10
2022-12-31T08:02:24.385Z,16.10
2022-12-31T08:03:27.288Z,16.10
2022-12-31T08:04:28.094Z,16.10
2022-12-31T08:05:21.681Z,16.20
2022-12-31T08:06:28.502Z,16.20
2022-12-31T08:07:26.674Z,16.20
2022-12-31T08:08:57.660Z,15.90
2022-12-31T08:10:02.379Z,16.20
2022-12-31T08:10:59.272Z,16.20
2022-12-31T08:11:52.134Z,16.20
2022-12-31T08:12:36.560Z,16.30
2022-12-31T08:13:18.683Z,16.30
2022-12-31T08:14:03.684Z,16.30
2022-12-31T08:14:48.628Z,16.30
2022-12-31T08:15:33.408Z,16.30
2022-12-31T08:16:15.530Z,16.30
2022-12-31T08:16:58.006Z,16.60
2022-12-31T08:17:42.173Z,16.30
2022-12-31T08:18:24.211Z,16.30
2022-12-31T08:19:06.624Z,16.20
2022-12-31T08:19:48.886Z,16.30
2022-12-31T08:20:32.862Z,16.20
2022-12-31T08:21:32.732Z,16.30
2022-12-31T08:22:28.460Z,16.20
2022-12-31T08:23:51.273Z,16.30
2022-12-31T08:25:10.126Z,16.40
2022-12-31T08:25:54.836Z,16.40
2022-12-31T08:27:00.727Z,16.30
2022-12-31T08:28:01.486Z,16.50
2022-12-31T08:29:04.731Z,16.40
2022-12-31T08:29:54.041Z,16.40
2022-12-31T08:30:52.568Z,16.40
2022-12-31T08:31:42.431Z,16.40
2022-12-31T08:32:37.856Z,16.40
2022-12-31T08:33:42.822Z,16.40
2022-12-31T08:34:42.842Z,16.30
2022-12-31T08:35:45.804Z,16.40
2022-12-31T08:36:46.505Z,16.40
2022-12-31T08:37:30.906Z,16.60
2022-12-31T08:38:40.005Z,16.40
2022-12-31T08:39:34.065Z,16.40
2022-12-31T08:40:38.400Z,16.40
2022-12-31T08:41:42.676Z,16.30
2022-12-31T08:42:42.794Z,16.50
2022-12-31T08:43:39.178Z,16.50
2022-12-31T08:44:44.125Z,16.50
2022-12-31T08:45:33.043Z,16.40
2022-12-31T08:46:41.614Z,16.50
2022-12-31T08:47:38.163Z,16.60
2022-12-31T08:48:42.821Z,16.60
2022-12-31T08:49:27.735Z,16.60
2022-12-31T08:50:16.955Z,16.60
2022-12-31T08:50:59.088Z,16.50
2022-12-31T08:51:41.677Z,16.50
2022-12-31T08:52:26.678Z,16.50
2022-12-31T08:53:08.743Z,16.60
2022-12-31T08:53:51.588Z,16.30
2022-12-31T08:54:33.625Z,16.50
2022-12-31T08:55:17.204Z,16.60
2022-12-31T08:56:16.164Z,16.60
2022-12-31T08:57:15.709Z,16.60
2022-12-31T08:58:06.630Z,16.60
2022-12-31T08:59:25.184Z,16.60
2022-12-31T09:00:11.615Z,16.70
2022-12-31T09:00:57.666Z,16.70
2022-12-31T09:02:08.224Z,16.70
2022-12-31T09:03:04.971Z,16.70
2022-12-31T09:04:13.800Z,16.70
2022-12-31T09:05:31.791Z,19.40
2022-12-31T09:06:22.625Z,16.80
2022-12-31T09:07:05.727Z,16.80
2022-12-31T09:08:03.286Z,16.60
2022-12-31T09:08:53.560Z,16.80
2022-12-31T09:10:01.591Z,16.80
2022-12-31T09:10:53.221Z,16.60
2022-12-31T09:12:04.337Z,16.80
2022-12-31T09:13:18.960Z,16.70
2022-12-31T09:14:09.460Z,16.80
2022-12-31T09:15:12.342Z,16.80
2022-12-31T09:16:37.708Z,16.80
2022-12-31T09:17:31.160Z,16.80
2022-12-31T09:18:13.417Z,16.90
2022-12-31T09:18:55.265Z,16.80
2022-12-31T09:19:37.360Z,16.80
2022-12-31T09:20:42.181Z,16.80
2022-12-31T09:21:25.117Z,16.90
2022-12-31T09:22:07.315Z,16.90
2022-12-31T09:22:49.980Z,16.90
2022-12-31T09:23:34.704Z,16.90
2022-12-31T09:24:17.493Z,16.90
2022-12-31T09:24:59.600Z,17.00
2022-12-31T09:26:01.729Z,17.00
2022-12-31T09:27:01.785Z,17.00
2022-12-31T09:27:53.976Z,17.00
2022-12-31T09:28:44.447Z,18.90
2022-12-31T09:29:47.403Z,17.20
2022-12-31T09:30:37.467Z,17.10
2022-12-31T09:31:43.532Z,16.90
2022-12-31T09:32:43.882Z,17.00
2022-12-31T09:33:48.915Z,16.90
2022-12-31T09:34:43.858Z,16.90
2022-12-31T09:35:38.117Z,16.90
2022-12-31T09:36:33.570Z,16.90
2022-12-31T09:37:30.938Z,16.90
2022-12-31T09:38:36.311Z,16.90
2022-12-31T09:39:37.142Z,17.00
2022-12-31T09:40:18.901Z,16.80
2022-12-31T09:41:41.279Z,16.90
2022-12-31T09:42:41.710Z,17.00
2022-12-31T09:43:47.515Z,17.00
2022-12-31T09:45:06.453Z,17.00
2022-12-31T09:46:05.692Z,17.00
2022-12-31T09:47:25.947Z,17.10
2022-12-31T09:48:34.391Z,17.00
2022-12-31T09:49:45.911Z,17.10
2022-12-31T09:50:46.387Z,17.00
2022-12-31T09:51:32.059Z,17.00
2022-12-31T09:52:36.981Z,17.00
2022-12-31T09:53:49.383Z,17.00
2022-12-31T09:54:45.783Z,17.00
2022-12-31T09:55:37.040Z,17.00
2022-12-31T09:56:38.214Z,15.00
2022-12-31T09:57:19.908Z,16.70
2022-12-31T09:58:18.910Z,17.10
2022-12-31T09:59:10.413Z,17.20
2022-12-31T10:00:03.870Z,17.00
2022-12-31T10:01:11.482Z,17.00
2022-12-31T10:02:21.127Z,17.10
2022-12-31T10:03:23.818Z,17.30
2022-12-31T10:04:35.250Z,17.20
2022-12-31T10:05:32.104Z,17.20
2022-12-31T10:06:32.296Z,17.00
2022-12-31T10:07:28.448Z,17.20
2022-12-31T10:08:40.149Z,17.30
2022-12-31T10:09:42.834Z,17.20
2022-12-31T10:10:29.179Z,17.20
2022-12-31T10:11:16.844Z,17.30
2022-12-31T10:12:16.948Z,17.10
2022-12-31T10:13:51.764Z,17.30
2022-12-31T10:14:55.601Z,17.00
2022-12-31T10:16:04.069Z,17.20
2022-12-31T10:16:55.022Z,17.20
2022-12-31T10:17:42.906Z,17.20
2022-12-31T10:18:48.791Z,17.20
2022-12-31T10:20:07.369Z,17.30